Time;durP1;ratioP1;P1;durP2;ratioP2;P2;SDS_P1;SDS_P2;PMS_P1;PMS_P2;Temp;Humidity;BMP_temperature;BMP_pressure;BME280_temperature;BME280_humidity;BME280_pressure;Samples;Min_cycle;Max_cycle;Signal;HPM_P1;HPM_P2
2023/09/15 00:01:30;;;;;;;8.03;5.20;;;14.80;99.90;;;;;;4384799;28;658618;-72
2023/09/15 00:04:17;;;;;;;8.93;5.23;;;14.80;99.90;;;;;;4408003;28;658383;-71
2023/09/15 00:07:08;;;;;;;11.70;5.30;;;14.80;99.90;;;;;;4414728;28;658506;-71
2023/09/15 00:09:55;;;;;;;8.50;5.37;;;14.90;99.90;;;;;;4379567;28;659539;-72
2023/09/15 00:12:43;;;;;;;8.17;5.13;;;14.90;99.90;;;;;;4401506;28;658111;-71
2023/09/15 00:15:30;;;;;;;6.80;5.07;;;14.90;99.90;;;;;;4414743;28;658801;-72
2023/09/15 00:18:18;;;;;;;8.30;5.30;;;15.00;99.90;;;;;;4391312;28;657931;-70
2023/09/15 00:21:08;;;;;;;7.67;5.10;;;15.00;99.90;;;;;;4409234;28;657937;-72
2023/09/15 00:23:57;;;;;;;9.93;5.30;;;15.00;99.90;;;;;;4389988;28;657723;-72
2023/09/15 00:26:44;;;;;;;7.67;5.43;;;15.00;99.90;;;;;;4386160;28;658724;-71
2023/09/15 00:29:31;;;;;;;8.73;4.83;;;15.00;99.90;;;;;;4402520;28;657957;-71
2023/09/15 00:32:19;;;;;;;7.87;5.10;;;15.00;99.90;;;;;;4387969;28;658105;-72
2023/09/15 00:35:06;;;;;;;6.83;4.83;;;15.00;99.90;;;;;;4414157;28;656894;-72
2023/09/15 00:37:55;;;;;;;9.80;5.60;;;15.00;99.90;;;;;;4390501;28;657400;-71
2023/09/15 00:40:44;;;;;;;10.00;5.20;;;15.00;99.90;;;;;;4401574;28;657591;-71
2023/09/15 00:43:31;;;;;;;10.93;5.70;;;15.00;99.90;;;;;;4400975;28;660335;-71
2023/09/15 00:46:19;;;;;;;8.90;5.70;;;15.10;99.90;;;;;;4382357;28;658598;-71
2023/09/15 00:49:06;;;;;;;9.00;4.83;;;15.10;99.90;;;;;;4408161;28;658081;-72
2023/09/15 00:51:53;;;;;;;5.70;4.17;;;15.10;99.90;;;;;;4386278;28;657601;-71
2023/09/15 00:54:41;;;;;;;8.80;4.70;;;15.10;99.90;;;;;;4409664;28;657923;-71
2023/09/15 00:57:29;;;;;;;8.83;4.77;;;15.20;99.90;;;;;;4387871;28;657579;-71
2023/09/15 01:00:19;;;;;;;11.03;4.60;;;15.10;99.90;;;;;;4411026;28;657216;-71
2023/09/15 01:03:07;;;;;;;7.50;4.30;;;15.10;99.90;;;;;;4384473;28;659113;-72
2023/09/15 01:05:55;;;;;;;6.13;4.30;;;15.20;99.90;;;;;;4384724;28;657465;-72
2023/09/15 01:08:43;;;;;;;7.43;4.17;;;15.20;99.90;;;;;;4403241;28;658077;-71
2023/09/15 01:11:31;;;;;;;7.20;3.60;;;15.20;99.90;;;;;;4405186;28;658631;-72
2023/09/15 01:14:20;;;;;;;7.20;3.20;;;15.30;99.90;;;;;;4390853;28;658149;-72
2023/09/15 01:17:10;;;;;;;6.23;3.40;;;15.20;99.90;;;;;;4406705;28;657730;-71
2023/09/15 01:20:06;;;;;;;7.43;2.90;;;15.20;99.90;;;;;;4388599;28;657858;-71
2023/09/15 01:23:05;;;;;;;11.90;3.30;;;15.20;99.90;;;;;;4388700;28;657826;-71
2023/09/15 01:26:12;;;;;;;4.83;2.80;;;15.10;99.90;;;;;;4359645;28;658591;-71
2023/09/15 01:29:29;;;;;;;4.80;2.63;;;15.00;99.90;;;;;;4352465;28;658373;-71
2023/09/15 01:32:18;;;;;;;6.47;2.70;;;14.90;99.90;;;;;;4379154;28;657814;-72
2023/09/15 01:35:06;;;;;;;5.90;2.90;;;14.80;99.90;;;;;;4378310;28;657990;-72
2023/09/15 01:37:53;;;;;;;4.07;2.90;;;14.80;99.90;;;;;;4386732;28;657565;-71
2023/09/15 01:40:41;;;;;;;5.37;3.37;;;14.70;99.90;;;;;;4401596;28;658940;-72
2023/09/15 01:43:28;;;;;;;8.93;2.87;;;14.60;99.90;;;;;;4396241;28;658383;-71
2023/09/15 01:46:17;;;;;;;7.50;2.63;;;14.60;99.90;;;;;;4416111;28;658416;-72
2023/09/15 01:49:04;;;;;;;6.70;3.50;;;14.60;99.90;;;;;;4378583;28;659294;-71
2023/09/15 01:51:51;;;;;;;6.40;3.60;;;14.50;99.90;;;;;;4400542;28;657937;-72
2023/09/15 01:54:39;;;;;;;6.80;4.00;;;14.50;99.90;;;;;;4380223;28;658092;-71
2023/09/15 01:57:26;;;;;;;5.67;3.00;;;14.40;99.90;;;;;;4410825;28;657797;-72
2023/09/15 02:00:14;;;;;;;9.53;5.83;;;14.40;99.90;;;;;;4390628;28;657747;-71
2023/09/15 02:03:03;;;;;;;8.57;5.00;;;14.30;99.90;;;;;;4398102;28;657830;-72
2023/09/15 02:05:50;;;;;;;9.83;6.07;;;14.30;99.90;;;;;;4384223;28;658733;-71
2023/09/15 02:08:37;;;;;;;10.73;6.63;;;14.20;99.90;;;;;;4393266;28;657634;-71
2023/09/15 02:11:25;;;;;;;12.23;6.90;;;14.20;99.90;;;;;;4400199;28;659640;-72
2023/09/15 02:14:12;;;;;;;12.53;6.87;;;14.20;99.90;;;;;;4405228;28;659628;-71
2023/09/15 02:17:00;;;;;;;11.60;7.00;;;14.10;99.90;;;;;;4412243;28;660094;-72
2023/09/15 02:19:49;;;;;;;12.83;6.60;;;14.10;99.90;;;;;;4401397;28;659037;-71
2023/09/15 02:22:36;;;;;;;10.37;6.50;;;14.10;99.90;;;;;;4403409;28;658498;-72
2023/09/15 02:25:24;;;;;;;7.73;5.20;;;14.00;99.90;;;;;;4383646;28;658703;-72
2023/09/15 02:28:11;;;;;;;6.43;4.60;;;14.00;99.90;;;;;;4401934;28;657761;-72
2023/09/15 02:30:58;;;;;;;11.70;5.80;;;14.00;99.90;;;;;;4317289;28;658099;-71
2023/09/15 02:33:46;;;;;;;15.00;6.40;;;14.00;99.90;;;;;;4287984;28;659120;-71
2023/09/15 02:36:35;;;;;;;11.70;5.87;;;14.00;99.90;;;;;;4275171;28;659079;-71
2023/09/15 02:39:22;;;;;;;7.87;4.80;;;14.10;99.90;;;;;;4356739;28;658522;-72
2023/09/15 02:42:12;;;;;;;10.47;6.37;;;14.10;99.90;;;;;;4379862;28;657974;-72
2023/09/15 02:44:59;;;;;;;11.40;7.17;;;14.10;99.90;;;;;;4387101;28;658912;-72
2023/09/15 02:47:46;;;;;;;13.50;7.03;;;14.20;99.90;;;;;;4406427;28;658377;-72
2023/09/15 02:50:33;;;;;;;8.93;6.47;;;14.30;99.90;;;;;;4375775;28;659048;-71
2023/09/15 02:53:22;;;;;;;15.50;7.00;;;14.40;99.90;;;;;;4388741;28;658468;-72
2023/09/15 02:56:09;;;;;;;10.33;7.30;;;14.40;99.90;;;;;;4388625;28;658559;-72
2023/09/15 02:58:56;;;;;;;11.57;6.97;;;14.50;99.90;;;;;;4401785;28;658136;-71
2023/09/15 03:01:44;;;;;;;16.03;6.80;;;14.50;99.90;;;;;;4386162;28;659846;-72
2023/09/15 03:04:31;;;;;;;13.13;6.77;;;14.60;99.90;;;;;;4407400;28;658916;-72
2023/09/15 03:07:18;;;;;;;12.53;7.23;;;14.60;99.90;;;;;;4382917;28;659080;-71
2023/09/15 03:10:08;;;;;;;12.73;6.67;;;14.70;99.90;;;;;;4400716;28;658991;-72
2023/09/15 03:12:55;;;;;;;13.37;7.37;;;14.70;99.90;;;;;;4373504;28;659385;-72
2023/09/15 03:15:42;;;;;;;11.37;6.80;;;14.70;99.90;;;;;;4388503;28;659272;-71
2023/09/15 03:18:30;;;;;;;9.07;6.50;;;14.70;99.90;;;;;;4402673;28;660177;-71
2023/09/15 03:21:19;;;;;;;10.17;6.50;;;14.70;99.90;;;;;;4412192;28;657998;-71
2023/09/15 03:24:08;;;;;;;13.53;7.43;;;14.70;99.90;;;;;;4399248;28;659142;-72
2023/09/15 03:26:57;;;;;;;11.77;6.40;;;14.70;99.90;;;;;;4374064;28;659672;-72
2023/09/15 03:29:44;;;;;;;10.97;7.40;;;14.80;99.90;;;;;;4391076;28;658448;-72
2023/09/15 03:32:31;;;;;;;12.00;7.03;;;14.70;99.90;;;;;;4404532;28;658567;-72
2023/09/15 03:35:18;;;;;;;10.73;6.80;;;14.70;99.90;;;;;;4387398;28;658872;-72
2023/09/15 03:38:05;;;;;;;12.80;6.97;;;14.70;99.90;;;;;;4396005;28;660072;-72
2023/09/15 03:40:52;;;;;;;12.43;6.87;;;14.70;99.90;;;;;;4378108;28;658943;-71
2023/09/15 03:43:41;;;;;;;10.33;6.87;;;14.60;99.90;;;;;;4400976;28;660097;-72
2023/09/15 03:46:29;;;;;;;13.10;6.57;;;14.60;99.90;;;;;;4391986;28;658448;-72
2023/09/15 03:49:16;;;;;;;10.50;6.70;;;14.70;99.90;;;;;;4418045;28;658950;-72
2023/09/15 03:52:04;;;;;;;12.10;6.53;;;14.60;99.90;;;;;;4384100;28;659545;-71
2023/09/15 03:54:51;;;;;;;13.73;7.40;;;14.60;99.90;;;;;;4397302;28;659015;-72
2023/09/15 03:57:38;;;;;;;19.40;7.60;;;14.60;99.90;;;;;;4380699;28;659137;-72
2023/09/15 04:00:27;;;;;;;9.17;6.70;;;14.60;99.90;;;;;;4405066;28;659701;-72
2023/09/15 04:03:15;;;;;;;13.63;7.13;;;14.60;99.90;;;;;;4384968;28;658398;-72
2023/09/15 04:06:04;;;;;;;11.47;7.13;;;14.60;99.90;;;;;;4408987;28;658480;-71
2023/09/15 04:08:52;;;;;;;19.53;7.47;;;14.60;99.90;;;;;;4406493;28;658144;-72
2023/09/15 04:11:40;;;;;;;10.53;7.43;;;14.60;99.90;;;;;;4391601;28;661008;-72
2023/09/15 04:14:28;;;;;;;13.03;7.80;;;14.60;99.90;;;;;;4407279;28;658821;-72
2023/09/15 04:17:17;;;;;;;11.00;8.00;;;14.60;99.90;;;;;;4409713;28;659287;-72
2023/09/15 04:20:08;;;;;;;12.50;8.00;;;14.60;99.90;;;;;;4390173;28;658852;-71
2023/09/15 04:22:56;;;;;;;10.63;7.27;;;14.60;99.90;;;;;;4377737;28;659580;-72
2023/09/15 04:25:43;;;;;;;14.00;8.00;;;14.60;99.90;;;;;;4378696;28;659213;-72
2023/09/15 04:28:30;;;;;;;13.83;8.23;;;14.60;99.90;;;;;;4408194;28;658916;-72
2023/09/15 04:31:17;;;;;;;14.23;7.82;;;14.60;99.90;;;;;;4393006;28;658813;-71
2023/09/15 04:34:06;;;;;;;11.17;7.90;;;14.50;99.90;;;;;;4405140;28;659617;-72
2023/09/15 04:36:53;;;;;;;15.90;7.83;;;14.50;99.90;;;;;;4388734;28;658699;-71
2023/09/15 04:39:41;;;;;;;16.40;8.33;;;14.50;99.90;;;;;;4407744;28;659411;-72
2023/09/15 04:42:28;;;;;;;12.00;7.60;;;14.50;99.90;;;;;;4389196;28;658966;-71
2023/09/15 04:45:15;;;;;;;15.47;8.00;;;14.40;99.90;;;;;;4407244;28;659064;-72
2023/09/15 04:48:03;;;;;;;18.00;8.77;;;14.40;99.90;;;;;;4387023;28;658784;-71
2023/09/15 04:50:51;;;;;;;9.70;7.60;;;14.40;99.90;;;;;;4405422;28;659710;-71
2023/09/15 04:53:39;;;;;;;13.63;7.70;;;14.40;99.90;;;;;;4385468;28;657472;-72
2023/09/15 04:56:26;;;;;;;10.80;7.87;;;14.40;99.90;;;;;;4402316;28;659220;-72
2023/09/15 04:59:16;;;;;;;18.20;8.43;;;14.40;99.90;;;;;;4388246;28;659444;-72
2023/09/15 05:02:06;;;;;;;12.57;8.27;;;14.40;99.90;;;;;;4388196;28;659575;-72
2023/09/15 05:04:54;;;;;;;11.80;8.20;;;14.50;99.90;;;;;;4386221;28;658614;-72
2023/09/15 05:07:43;;;;;;;14.20;7.60;;;14.50;99.90;;;;;;4404170;28;658352;-72
2023/09/15 05:10:30;;;;;;;16.13;8.63;;;14.50;99.90;;;;;;4384158;28;659621;-72
2023/09/15 05:13:17;;;;;;;13.43;6.97;;;14.70;99.90;;;;;;4385486;28;658858;-71
2023/09/15 05:16:05;;;;;;;12.00;6.87;;;14.80;99.90;;;;;;4419120;28;659901;-72
2023/09/15 05:18:52;;;;;;;13.37;6.53;;;14.90;99.90;;;;;;4401328;28;659254;-72
2023/09/15 05:21:40;;;;;;;10.53;6.43;;;15.00;99.90;;;;;;4410127;28;660170;-71
2023/09/15 05:24:29;;;;;;;9.37;5.90;;;15.00;99.90;;;;;;4383346;28;658714;-71
2023/09/15 05:27:16;;;;;;;13.97;6.57;;;15.10;99.90;;;;;;4412501;28;657809;-72
2023/09/15 05:30:04;;;;;;;10.50;6.28;;;15.00;99.90;;;;;;4380043;28;658661;-72
2023/09/15 05:32:51;;;;;;;11.87;6.17;;;15.20;99.90;;;;;;4405232;28;658954;-71
2023/09/15 05:35:38;;;;;;;9.23;5.70;;;15.30;99.90;;;;;;4391191;28;658395;-72
2023/09/15 05:38:26;;;;;;;8.87;6.10;;;15.40;99.90;;;;;;4403785;28;657851;-72
2023/09/15 05:41:14;;;;;;;12.37;6.10;;;15.60;99.90;;;;;;4384659;28;657537;-72
2023/09/15 05:44:02;;;;;;;9.03;5.77;;;15.70;99.90;;;;;;4404413;28;659603;-72
2023/09/15 05:46:49;;;;;;;11.93;6.20;;;15.90;99.90;;;;;;4384084;28;658549;-71
2023/09/15 05:49:36;;;;;;;13.60;7.07;;;16.00;99.90;;;;;;4406638;28;658761;-72
2023/09/15 05:52:23;;;;;;;10.93;6.00;;;16.10;99.90;;;;;;4387557;28;659011;-71
2023/09/15 05:55:10;;;;;;;11.27;6.53;;;16.30;99.90;;;;;;4405835;28;659946;-72
2023/09/15 05:57:59;;;;;;;9.03;5.70;;;16.40;99.90;;;;;;4388427;28;658708;-71
2023/09/15 06:00:46;;;;;;;9.23;5.63;;;16.40;99.90;;;;;;4396050;28;657244;-73
2023/09/15 06:03:33;;;;;;;8.67;5.57;;;16.50;99.90;;;;;;4388587;28;657817;-70
2023/09/15 06:06:20;;;;;;;8.77;5.33;;;16.50;99.90;;;;;;4405567;28;658366;-70
2023/09/15 06:09:08;;;;;;;10.47;5.27;;;16.50;99.90;;;;;;4392553;28;657377;-69
2023/09/15 06:11:56;;;;;;;8.13;4.83;;;16.40;99.90;;;;;;4402735;28;659002;-69
2023/09/15 06:14:45;;;;;;;8.30;4.57;;;16.30;99.90;;;;;;4393845;28;657537;-69
2023/09/15 06:17:34;;;;;;;9.17;4.80;;;16.20;99.90;;;;;;4398327;28;657115;-70
2023/09/15 06:20:21;;;;;;;7.57;4.60;;;16.10;99.90;;;;;;4406915;28;657284;-70
2023/09/15 06:23:08;;;;;;;8.63;4.70;;;16.20;99.90;;;;;;4384578;28;657773;-70
2023/09/15 06:25:55;;;;;;;7.27;4.93;;;16.20;99.90;;;;;;4406082;28;659120;-70
2023/09/15 06:28:43;;;;;;;5.73;4.37;;;16.20;99.90;;;;;;4392777;28;657624;-69
2023/09/15 06:31:31;;;;;;;8.50;4.50;;;16.20;99.90;;;;;;4411052;28;659476;-70
2023/09/15 06:34:18;;;;;;;7.70;4.83;;;16.30;99.90;;;;;;4380097;28;658631;-69
2023/09/15 06:37:06;;;;;;;7.40;4.90;;;16.30;99.90;;;;;;4407378;28;658052;-69
2023/09/15 06:39:53;;;;;;;9.60;5.00;;;16.60;99.90;;;;;;4383053;28;657658;-69
2023/09/15 06:42:40;;;;;;;7.80;3.90;;;16.90;99.90;;;;;;4416024;28;658275;-70
2023/09/15 06:45:27;;;;;;;6.60;3.83;;;17.10;99.90;;;;;;4387898;28;657128;-69
2023/09/15 06:48:16;;;;;;;9.53;3.83;;;17.30;99.90;;;;;;4410196;28;657572;-70
2023/09/15 06:51:03;;;;;;;6.30;3.50;;;17.30;99.90;;;;;;4384269;28;657787;-69
2023/09/15 06:53:52;;;;;;;6.07;3.20;;;17.40;99.90;;;;;;4406264;28;658084;-69
2023/09/15 06:56:39;;;;;;;10.50;3.50;;;17.50;99.90;;;;;;4391831;28;657703;-70
2023/09/15 06:59:26;;;;;;;5.43;2.90;;;17.60;99.90;;;;;;4401716;28;658799;-69
2023/09/15 07:02:13;;;;;;;5.67;2.60;;;17.60;99.90;;;;;;4391785;28;657533;-70
2023/09/15 07:05:02;;;;;;;5.60;2.50;;;17.70;99.90;;;;;;4405744;28;658290;-69
2023/09/15 07:07:50;;;;;;;6.07;2.47;;;17.90;99.90;;;;;;4384252;28;658384;-70
2023/09/15 07:10:37;;;;;;;8.07;2.57;;;17.90;99.90;;;;;;4388795;28;657783;-69
2023/09/15 07:13:25;;;;;;;5.33;2.63;;;18.00;99.90;;;;;;4412050;28;658660;-70
2023/09/15 07:16:12;;;;;;;6.17;3.13;;;18.10;99.90;;;;;;4408550;28;657928;-70
2023/09/15 07:19:00;;;;;;;10.97;3.53;;;18.20;99.90;;;;;;4413560;28;658231;-69
2023/09/15 07:21:49;;;;;;;7.20;3.07;;;18.30;99.90;;;;;;4396645;28;658588;-69
2023/09/15 07:24:36;;;;;;;5.63;2.90;;;18.40;99.90;;;;;;4412325;28;657321;-69
2023/09/15 07:27:24;;;;;;;5.93;2.97;;;18.60;99.90;;;;;;4386928;28;657885;-70
2023/09/15 07:30:12;;;;;;;10.33;2.80;;;18.70;99.90;;;;;;4409008;28;658433;-69
2023/09/15 07:33:01;;;;;;;5.03;2.67;;;18.70;99.90;;;;;;4380180;28;660023;-69
2023/09/15 07:35:48;;;;;;;9.20;2.97;;;18.70;99.90;;;;;;4388834;28;658410;-70
2023/09/15 07:38:37;;;;;;;6.50;2.30;;;18.90;99.90;;;;;;4402735;28;657998;-69
2023/09/15 07:41:24;;;;;;;5.43;2.20;;;19.20;99.90;;;;;;4389756;28;659724;-69
2023/09/15 07:44:11;;;;;;;4.43;2.53;;;19.40;99.90;;;;;;4407394;28;657341;-69
2023/09/15 07:46:59;;;;;;;8.23;2.90;;;19.50;99.90;;;;;;4380816;28;659101;-69
2023/09/15 07:49:46;;;;;;;3.33;1.97;;;19.30;99.90;;;;;;4409492;28;658355;-70
2023/09/15 07:52:33;;;;;;;4.70;2.10;;;19.10;99.90;;;;;;4390568;28;657345;-69
2023/09/15 07:55:23;;;;;;;2.90;1.97;;;19.20;99.90;;;;;;4406797;28;658429;-69
2023/09/15 07:58:10;;;;;;;3.93;1.90;;;19.50;99.90;;;;;;4395214;28;658253;-69
2023/09/15 08:00:58;;;;;;;2.90;1.60;;;19.80;99.90;;;;;;4396115;28;657901;-69
2023/09/15 08:03:45;;;;;;;2.57;1.80;;;20.20;99.90;;;;;;4411365;28;657697;-69
2023/09/15 08:06:33;;;;;;;3.30;1.60;;;20.50;99.90;;;;;;4384153;28;657614;-69
2023/09/15 08:09:20;;;;;;;4.37;1.90;;;20.60;99.90;;;;;;4404436;28;659083;-70
2023/09/15 08:12:10;;;;;;;5.40;1.87;;;20.80;99.90;;;;;;4388695;28;657398;-69
2023/09/15 08:14:57;;;;;;;5.80;2.20;;;20.80;99.90;;;;;;4410014;28;657593;-69
2023/09/15 08:17:45;;;;;;;4.87;2.17;;;21.00;99.90;;;;;;4406420;28;658377;-70
2023/09/15 08:20:32;;;;;;;6.03;1.90;;;21.10;99.90;;;;;;4404834;28;658644;-69
2023/09/15 08:23:20;;;;;;;4.33;1.80;;;21.30;99.90;;;;;;4411442;28;658743;-69
2023/09/15 08:26:07;;;;;;;3.53;1.70;;;21.40;99.90;;;;;;4414586;28;657141;-69
2023/09/15 08:28:55;;;;;;;4.30;1.70;;;21.60;99.90;;;;;;4379879;28;659294;-68
2023/09/15 08:31:43;;;;;;;2.83;1.83;;;21.70;99.90;;;;;;4385931;28;657553;-69
2023/09/15 08:34:30;;;;;;;4.20;1.70;;;21.90;99.90;;;;;;4376863;28;658991;-69
2023/09/15 08:37:17;;;;;;;3.87;1.90;;;22.20;99.90;;;;;;4326697;28;657912;-69
2023/09/15 08:40:06;;;;;;;5.77;2.23;;;22.30;99.90;;;;;;4332087;28;658113;-69
2023/09/15 08:42:53;;;;;;;3.13;1.90;;;22.20;99.90;;;;;;4382300;28;657543;-68
2023/09/15 08:45:42;;;;;;;5.80;1.80;;;22.40;99.90;;;;;;4411013;28;658350;-69
2023/09/15 08:48:29;;;;;;;3.57;2.20;;;22.20;99.90;;;;;;4389491;28;659437;-69
2023/09/15 08:51:16;;;;;;;3.13;1.47;;;22.00;99.90;;;;;;4404869;28;660546;-68
2023/09/15 08:54:04;;;;;;;5.00;1.50;;;21.90;99.90;;;;;;4382287;28;657614;-69
2023/09/15 08:56:51;;;;;;;5.20;1.70;;;22.10;99.90;;;;;;4402143;28;657707;-69
2023/09/15 08:59:39;;;;;;;8.03;2.40;;;22.60;99.90;;;;;;4386450;28;657216;-68
2023/09/15 09:02:28;;;;;;;6.43;1.70;;;22.90;99.90;;;;;;4411951;28;657517;-69
2023/09/15 09:05:15;;;;;;;3.97;1.58;;;23.10;99.90;;;;;;4381061;28;659347;-69
2023/09/15 09:08:03;;;;;;;2.97;1.70;;;23.00;99.90;;;;;;4385269;28;658525;-69
2023/09/15 09:10:50;;;;;;;3.70;1.70;;;23.10;99.90;;;;;;4410381;28;658145;-69
2023/09/15 09:13:38;;;;;;;3.17;1.63;;;23.50;99.90;;;;;;4382687;28;657614;-69
2023/09/15 09:16:25;;;;;;;5.15;1.75;;;23.80;99.90;;;;;;4395902;28;659114;-69
2023/09/15 09:19:14;;;;;;;5.63;1.80;;;24.00;90.20;;;;;;4400549;28;657707;-69
2023/09/15 09:22:01;;;;;;;2.88;1.73;;;24.40;91.80;;;;;;4403385;28;657716;-69
2023/09/15 09:24:53;;;;;;;5.25;1.70;;;24.50;78.00;;;;;;4380190;28;658154;-68
2023/09/15 09:27:40;;;;;;;4.30;1.70;;;24.60;74.30;;;;;;4386576;28;658780;-69
2023/09/15 09:30:29;;;;;;;6.60;1.60;;;24.40;78.10;;;;;;4371278;28;657760;-68
2023/09/15 09:33:20;;;;;;;6.47;1.70;;;24.40;76.60;;;;;;4403230;28;658618;-69
2023/09/15 09:36:13;;;;;;;5.30;1.60;;;24.50;74.50;;;;;;4386878;28;657896;-69
2023/09/15 09:39:00;;;;;;;3.15;1.60;;;24.60;73.20;;;;;;4378136;28;658447;-69
2023/09/15 09:41:47;;;;;;;2.03;1.45;;;24.90;77.40;;;;;;4390223;28;657179;-69
2023/09/15 09:44:36;;;;;;;3.55;1.50;;;24.90;73.20;;;;;;4404756;28;658666;-69
2023/09/15 09:47:23;;;;;;;3.95;1.50;;;25.30;73.00;;;;;;4384344;28;657313;-69
2023/09/15 09:50:11;;;;;;;3.25;1.40;;;25.30;72.30;;;;;;4404715;28;658254;-69
2023/09/15 09:53:00;;;;;;;2.13;1.20;;;25.90;72.50;;;;;;4385411;28;657734;-69
2023/09/15 09:55:47;;;;;;;6.95;1.60;;;26.30;66.50;;;;;;4406798;28;657349;-69
2023/09/15 09:58:35;;;;;;;3.22;1.45;;;26.10;63.10;;;;;;4397230;28;658351;-70
2023/09/15 10:01:22;;;;;;;2.65;1.63;;;25.90;62.30;;;;;;4407606;28;657899;-67
2023/09/15 10:04:10;;;;;;;4.53;1.60;;;25.70;60.90;;;;;;4408603;28;658908;-65
2023/09/15 10:06:58;;;;;;;3.38;1.60;;;25.20;60.30;;;;;;4402362;28;657456;-66
2023/09/15 10:09:46;;;;;;;4.15;1.45;;;24.60;64.10;;;;;;4404128;28;659302;-66
2023/09/15 10:12:34;;;;;;;3.42;1.60;;;24.50;65.80;;;;;;4388015;28;657667;-66
2023/09/15 10:15:22;;;;;;;3.47;1.50;;;24.20;64.50;;;;;;4399705;28;657866;-66
2023/09/15 10:18:12;;;;;;;3.55;1.75;;;23.60;64.10;;;;;;4383543;28;658763;-65
2023/09/15 10:20:59;;;;;;;2.92;1.70;;;23.40;73.30;;;;;;4386737;28;659136;-67
2023/09/15 10:23:46;;;;;;;3.15;1.40;;;23.30;73.20;;;;;;4404789;28;657338;-66
2023/09/15 10:26:37;;;;;;;3.17;1.55;;;23.20;70.30;;;;;;4386892;28;657730;-66
2023/09/15 10:29:30;;;;;;;2.72;1.48;;;23.60;71.40;;;;;;4375896;28;658361;-70
2023/09/15 10:32:17;;;;;;;5.63;1.70;;;23.80;68.70;;;;;;4391992;28;658877;-69
2023/09/15 10:35:06;;;;;;;2.20;1.60;;;24.00;64.70;;;;;;4409094;28;657941;-70
2023/09/15 10:37:57;;;;;;;2.97;1.35;;;24.60;65.00;;;;;;4388441;28;658241;-70
2023/09/15 10:40:45;;;;;;;2.30;1.40;;;25.00;59.60;;;;;;4386226;28;658944;-70
2023/09/15 10:43:34;;;;;;;6.38;1.52;;;25.40;58.80;;;;;;4383271;28;658319;-70
2023/09/15 10:46:21;;;;;;;3.83;1.92;;;25.60;58.60;;;;;;4395673;28;657819;-70
2023/09/15 10:49:15;;;;;;;3.83;1.63;;;25.40;59.00;;;;;;4384154;28;657478;-70
2023/09/15 10:52:03;;;;;;;2.47;1.52;;;25.50;60.40;;;;;;4355078;28;657513;-70
2023/09/15 10:54:50;;;;;;;3.88;1.50;;;25.60;58.70;;;;;;4406358;28;657755;-70
2023/09/15 10:57:37;;;;;;;3.13;1.55;;;25.70;57.70;;;;;;4375991;28;658127;-70
2023/09/15 11:00:26;;;;;;;2.85;1.40;;;25.90;58.10;;;;;;4403824;28;657534;-69
2023/09/15 11:03:13;;;;;;;2.42;1.40;;;26.00;56.90;;;;;;4379339;28;658520;-69
2023/09/15 11:06:01;;;;;;;2.88;1.40;;;26.20;56.40;;;;;;4417037;28;659834;-69
2023/09/15 11:08:49;;;;;;;4.53;1.48;;;26.20;58.70;;;;;;4376807;28;657943;-70
2023/09/15 11:11:36;;;;;;;3.17;1.65;;;26.20;55.10;;;;;;4391798;28;658971;-70
2023/09/15 11:14:24;;;;;;;2.45;1.77;;;25.90;57.10;;;;;;4379169;28;657919;-70
2023/09/15 11:17:12;;;;;;;4.78;1.80;;;26.10;60.40;;;;;;4403785;28;658346;-70
2023/09/15 11:20:05;;;;;;;3.88;1.67;;;25.80;57.20;;;;;;4381365;28;658834;-69
2023/09/15 11:22:56;;;;;;;3.80;1.88;;;25.80;60.10;;;;;;4373161;28;657668;-70
2023/09/15 11:25:43;;;;;;;5.10;1.73;;;25.70;59.20;;;;;;4385617;28;657861;-70
2023/09/15 11:28:31;;;;;;;2.95;1.40;;;25.50;59.60;;;;;;4397366;28;659289;-70
2023/09/15 11:31:19;;;;;;;2.65;1.70;;;25.60;61.20;;;;;;4386764;28;658284;-70
2023/09/15 11:34:08;;;;;;;3.25;1.80;;;25.80;61.50;;;;;;4407349;28;658068;-69
2023/09/15 11:36:58;;;;;;;1.95;1.55;;;26.50;59.30;;;;;;4382315;28;657702;-70
2023/09/15 11:39:50;;;;;;;2.95;1.80;;;26.60;56.80;;;;;;4381638;28;658804;-69
2023/09/15 11:42:37;;;;;;;4.00;1.70;;;26.50;55.50;;;;;;4380759;28;658937;-69
2023/09/15 11:45:28;;;;;;;4.10;1.55;;;26.70;57.00;;;;;;4408642;28;658313;-69
2023/09/15 11:48:15;;;;;;;2.22;1.70;;;26.60;54.00;;;;;;4382900;28;659147;-69
2023/09/15 11:51:04;;;;;;;9.73;2.00;;;26.50;55.50;;;;;;4381121;28;662079;-70
2023/09/15 11:53:51;;;;;;;4.45;1.92;;;26.70;54.80;;;;;;4408849;28;657521;-69
2023/09/15 11:56:38;;;;;;;2.80;2.00;;;26.40;53.40;;;;;;4383170;28;657812;-70
2023/09/15 11:59:26;;;;;;;3.20;1.70;;;25.70;54.40;;;;;;4399557;28;657604;-69
2023/09/15 12:02:13;;;;;;;5.75;2.10;;;25.40;55.90;;;;;;4381615;28;659023;-69
2023/09/15 12:05:00;;;;;;;3.13;1.55;;;25.40;56.30;;;;;;4401972;28;657880;-69
2023/09/15 12:07:49;;;;;;;4.18;2.00;;;25.40;56.40;;;;;;4392086;28;658300;-69
2023/09/15 12:10:36;;;;;;;2.92;1.83;;;24.90;56.40;;;;;;4411613;28;657932;-69
2023/09/15 12:13:24;;;;;;;3.15;1.90;;;24.50;57.90;;;;;;4386957;28;657424;-68
2023/09/15 12:16:17;;;;;;;3.40;1.50;;;24.30;59.70;;;;;;4403310;28;658235;-68
2023/09/15 12:19:04;;;;;;;6.20;1.75;;;23.90;59.50;;;;;;4379639;28;658022;-68
2023/09/15 12:21:52;;;;;;;3.55;1.85;;;23.60;61.40;;;;;;4406841;28;658449;-68
2023/09/15 12:24:41;;;;;;;3.85;2.00;;;24.00;66.20;;;;;;4374531;28;658967;-67
2023/09/15 12:27:29;;;;;;;4.03;1.65;;;24.60;60.50;;;;;;4384370;28;657786;-68
2023/09/15 12:30:16;;;;;;;14.75;2.88;;;25.10;58.80;;;;;;4407374;28;657967;-68
2023/09/15 12:33:05;;;;;;;4.97;1.90;;;25.70;57.30;;;;;;4387039;28;658211;-69
2023/09/15 12:35:52;;;;;;;2.70;1.67;;;25.80;55.10;;;;;;4406689;28;658447;-69
2023/09/15 12:38:39;;;;;;;2.78;1.60;;;25.70;55.70;;;;;;4388792;28;658417;-67
2023/09/15 12:41:28;;;;;;;3.63;1.90;;;25.30;54.90;;;;;;4410217;28;658295;-66
2023/09/15 12:44:15;;;;;;;4.07;2.00;;;25.50;56.60;;;;;;4383162;28;658350;-66
2023/09/15 12:47:04;;;;;;;2.63;1.85;;;25.60;57.30;;;;;;4387687;28;657454;-66
2023/09/15 12:49:51;;;;;;;3.35;1.67;;;25.80;54.60;;;;;;4410794;28;657964;-66
2023/09/15 12:52:39;;;;;;;5.68;2.00;;;25.80;54.40;;;;;;4384142;28;657554;-66
2023/09/15 12:55:26;;;;;;;5.13;1.98;;;25.70;55.30;;;;;;4406724;28;658036;-66
2023/09/15 12:58:17;;;;;;;2.63;1.90;;;26.00;56.80;;;;;;4382970;28;657437;-66
2023/09/15 13:01:04;;;;;;;4.72;1.55;;;26.20;54.20;;;;;;4388786;28;657842;-66
2023/09/15 13:03:52;;;;;;;4.85;1.90;;;26.40;53.70;;;;;;4408708;28;657574;-66
2023/09/15 13:06:39;;;;;;;2.95;1.70;;;26.70;52.10;;;;;;4383843;28;658176;-66
2023/09/15 13:09:27;;;;;;;2.45;1.80;;;26.60;54.00;;;;;;4409057;28;657600;-66
2023/09/15 13:12:14;;;;;;;5.00;1.75;;;26.80;52.50;;;;;;4384164;28;658502;-66
2023/09/15 13:15:03;;;;;;;3.33;1.77;;;26.50;50.90;;;;;;4403952;28;657522;-66
2023/09/15 13:17:52;;;;;;;3.22;1.65;;;26.30;52.90;;;;;;4385390;28;658924;-66
2023/09/15 13:20:39;;;;;;;2.90;2.20;;;26.60;55.10;;;;;;4387121;28;658145;-66
2023/09/15 13:23:26;;;;;;;2.45;1.75;;;26.30;52.20;;;;;;4407578;28;657681;-66
2023/09/15 13:26:13;;;;;;;4.10;2.10;;;25.80;53.60;;;;;;4385572;28;657479;-66
2023/09/15 13:29:01;;;;;;;4.18;2.17;;;25.50;53.30;;;;;;4408630;28;658747;-66
2023/09/15 13:31:49;;;;;;;4.75;1.88;;;25.30;54.10;;;;;;4386222;28;657861;-66
2023/09/15 13:34:37;;;;;;;2.88;2.10;;;25.10;54.30;;;;;;4404309;28;656859;-66
2023/09/15 13:37:24;;;;;;;3.13;2.03;;;24.80;55.30;;;;;;4378278;28;658668;-66
2023/09/15 13:40:11;;;;;;;3.00;1.95;;;24.50;55.80;;;;;;4398897;28;657740;-66
2023/09/15 13:42:58;;;;;;;3.78;1.80;;;24.20;55.20;;;;;;4384703;28;658415;-66
2023/09/15 13:45:52;;;;;;;2.47;1.80;;;24.20;56.60;;;;;;4404029;28;657893;-66
2023/09/15 13:48:41;;;;;;;3.95;1.80;;;24.60;57.90;;;;;;4365752;28;658337;-66
2023/09/15 13:51:28;;;;;;;2.40;1.83;;;25.10;56.80;;;;;;4387407;28;657237;-66
2023/09/15 13:54:17;;;;;;;5.35;1.90;;;25.30;54.20;;;;;;4401234;28;659252;-65
2023/09/15 13:57:05;;;;;;;6.13;1.90;;;25.70;55.10;;;;;;4377533;28;657788;-65
2023/09/15 13:59:53;;;;;;;4.00;2.10;;;25.80;55.40;;;;;;4382228;28;657860;-66
2023/09/15 14:02:41;;;;;;;5.25;2.25;;;26.00;53.30;;;;;;4405240;28;659938;-65
2023/09/15 14:05:30;;;;;;;4.75;1.90;;;26.10;54.20;;;;;;4381681;28;658316;-65
2023/09/15 14:08:17;;;;;;;5.97;1.77;;;26.40;52.80;;;;;;4402257;28;657902;-65
2023/09/15 14:11:06;;;;;;;5.05;2.15;;;26.60;53.10;;;;;;4407241;28;659649;-65
2023/09/15 14:13:53;;;;;;;5.20;1.80;;;25.80;52.80;;;;;;4382741;28;657938;-66
2023/09/15 14:16:40;;;;;;;3.80;2.25;;;26.30;51.90;;;;;;4402298;28;659669;-66
2023/09/15 14:19:28;;;;;;;4.07;1.88;;;26.60;50.00;;;;;;4383565;28;658052;-65